sensor_id;sensor_type;location;lat;lon;timestamp;pressure;altitude;pressure_sealevel;temperature;humidity
72414;BME280;60995;52.154;4.498;2023-03-23T00:00:22;100018.84;;;13.14;76.00
72414;BME280;60995;52.154;4.498;2023-03-23T00:02:38;100031.78;;;13.36;75.86
72414;BME280;60995;52.154;4.498;2023-03-23T00:04:55;100020.03;;;13.19;75.74
72414;BME280;60995;52.154;4.498;2023-03-23T00:07:11;100028.16;;;13.36;75.63
72414;BME280;60995;52.154;4.498;2023-03-23T00:09:28;100017.44;;;13.34;75.76
72414;BME280;60995;52.154;4.498;2023-03-23T00:11:45;100018.13;;;13.28;75.58
72414;BME280;60995;52.154;4.498;2023-03-23T00:14:02;100015.91;;;13.32;75.73
72414;BME280;60995;52.154;4.498;2023-03-23T00:16:24;100018.47;;;13.25;75.37
72414;BME280;60995;52.154;4.498;2023-03-23T00:18:55;100021.25;;;13.17;75.56
72414;BME280;60995;52.154;4.498;2023-03-23T00:21:13;100010.63;;;13.30;75.60
72414;BME280;60995;52.154;4.498;2023-03-23T00:23:29;100012.16;;;13.33;75.37
72414;BME280;60995;52.154;4.498;2023-03-23T00:25:47;100007.25;;;13.36;75.03
72414;BME280;60995;52.154;4.498;2023-03-23T00:28:05;99997.19;;;13.29;75.40
72414;BME280;60995;52.154;4.498;2023-03-23T00:30:22;99994.78;;;13.34;75.15
72414;BME280;60995;52.154;4.498;2023-03-23T00:32:38;99994.34;;;13.14;75.20
72414;BME280;60995;52.154;4.498;2023-03-23T00:34:56;99981.41;;;13.16;75.10
72414;BME280;60995;52.154;4.498;2023-03-23T00:37:16;99978.69;;;13.16;75.32
72414;BME280;60995;52.154;4.498;2023-03-23T00:39:33;99987.22;;;13.04;75.65
72414;BME280;60995;52.154;4.498;2023-03-23T00:41:54;99968.81;;;13.15;75.54
72414;BME280;60995;52.154;4.498;2023-03-23T00:44:17;99975.81;;;13.01;75.66
72414;BME280;60995;52.154;4.498;2023-03-23T00:46:33;99982.78;;;13.03;75.48
72414;BME280;60995;52.154;4.498;2023-03-23T00:48:50;99976.66;;;13.10;75.58
72414;BME280;60995;52.154;4.498;2023-03-23T00:51:07;99977.00;;;13.06;75.63
72414;BME280;60995;52.154;4.498;2023-03-23T00:53:27;99977.66;;;13.17;75.28
72414;BME280;60995;52.154;4.498;2023-03-23T00:55:45;99980.22;;;13.10;75.59
72414;BME280;60995;52.154;4.498;2023-03-23T00:58:02;99978.72;;;13.07;75.27
72414;BME280;60995;52.154;4.498;2023-03-23T01:00:19;99986.38;;;13.04;75.74
72414;BME280;60995;52.154;4.498;2023-03-23T01:02:36;99982.28;;;13.08;74.88
72414;BME280;60995;52.154;4.498;2023-03-23T01:04:52;99977.34;;;13.12;75.21
72414;BME280;60995;52.154;4.498;2023-03-23T01:07:09;99979.00;;;13.13;74.84
72414;BME280;60995;52.154;4.498;2023-03-23T01:09:28;99975.09;;;13.15;74.84
72414;BME280;60995;52.154;4.498;2023-03-23T01:11:44;99970.28;;;13.26;74.49
72414;BME280;60995;52.154;4.498;2023-03-23T01:14:02;99961.31;;;13.17;74.50
72414;BME280;60995;52.154;4.498;2023-03-23T01:16:19;99944.97;;;13.17;74.47
72414;BME280;60995;52.154;4.498;2023-03-23T01:18:37;99957.16;;;13.29;74.17
72414;BME280;60995;52.154;4.498;2023-03-23T01:20:54;99944.97;;;13.17;74.53
72414;BME280;60995;52.154;4.498;2023-03-23T01:23:11;99958.28;;;13.12;74.70
72414;BME280;60995;52.154;4.498;2023-03-23T01:25:29;99957.22;;;13.21;74.67
72414;BME280;60995;52.154;4.498;2023-03-23T01:27:47;99936.50;;;13.03;74.78
72414;BME280;60995;52.154;4.498;2023-03-23T01:30:04;99948.41;;;13.11;74.70
72414;BME280;60995;52.154;4.498;2023-03-23T01:32:22;99925.97;;;13.00;75.03
72414;BME280;60995;52.154;4.498;2023-03-23T01:34:38;99941.44;;;13.08;74.77
72414;BME280;60995;52.154;4.498;2023-03-23T01:36:55;99946.03;;;13.07;74.79
72414;BME280;60995;52.154;4.498;2023-03-23T01:39:11;99936.63;;;13.10;74.70
72414;BME280;60995;52.154;4.498;2023-03-23T01:41:27;99949.97;;;13.05;75.04
72414;BME280;60995;52.154;4.498;2023-03-23T01:46:20;99927.63;;;13.10;74.79
72414;BME280;60995;52.154;4.498;2023-03-23T01:48:38;99925.47;;;13.05;75.17
72414;BME280;60995;52.154;4.498;2023-03-23T01:50:59;99916.97;;;13.00;75.12
72414;BME280;60995;52.154;4.498;2023-03-23T01:53:27;99920.34;;;13.02;75.37
72414;BME280;60995;52.154;4.498;2023-03-23T01:55:50;99921.91;;;12.96;75.53
72414;BME280;60995;52.154;4.498;2023-03-23T01:58:10;99914.19;;;13.08;74.94
72414;BME280;60995;52.154;4.498;2023-03-23T02:00:27;99912.72;;;12.97;75.17
72414;BME280;60995;52.154;4.498;2023-03-23T02:02:47;99907.94;;;12.99;75.21
72414;BME280;60995;52.154;4.498;2023-03-23T02:05:11;99920.47;;;13.08;74.94
72414;BME280;60995;52.154;4.498;2023-03-23T02:07:29;99922.22;;;12.93;75.39
72414;BME280;60995;52.154;4.498;2023-03-23T02:09:47;99915.44;;;12.97;75.36
72414;BME280;60995;52.154;4.498;2023-03-23T02:12:05;99917.94;;;13.07;75.30
72414;BME280;60995;52.154;4.498;2023-03-23T02:14:24;99924.94;;;13.01;75.14
72414;BME280;60995;52.154;4.498;2023-03-23T02:22:24;99917.81;;;13.00;75.50
72414;BME280;60995;52.154;4.498;2023-03-23T02:28:10;99930.03;;;13.04;74.96
72414;BME280;60995;52.154;4.498;2023-03-23T02:30:48;99929.34;;;13.11;75.34
72414;BME280;60995;52.154;4.498;2023-03-23T02:33:40;99910.97;;;13.04;75.49
72414;BME280;60995;52.154;4.498;2023-03-23T02:38:55;99907.97;;;12.91;76.41
72414;BME280;60995;52.154;4.498;2023-03-23T02:41:22;99915.41;;;13.05;76.16
72414;BME280;60995;52.154;4.498;2023-03-23T02:43:45;99905.91;;;12.93;76.08
72414;BME280;60995;52.154;4.498;2023-03-23T02:46:05;99914.78;;;12.87;76.82
72414;BME280;60995;52.154;4.498;2023-03-23T02:48:28;99914.78;;;12.79;76.92
72414;BME280;60995;52.154;4.498;2023-03-23T02:50:49;99917.16;;;12.90;77.09
72414;BME280;60995;52.154;4.498;2023-03-23T02:53:10;99907.31;;;12.81;77.97
72414;BME280;60995;52.154;4.498;2023-03-23T02:55:28;99925.88;;;12.85;78.45
72414;BME280;60995;52.154;4.498;2023-03-23T02:57:47;99924.00;;;12.69;79.32
72414;BME280;60995;52.154;4.498;2023-03-23T03:00:05;99920.31;;;12.62;79.62
72414;BME280;60995;52.154;4.498;2023-03-23T03:02:29;99916.22;;;12.50;79.84
72414;BME280;60995;52.154;4.498;2023-03-23T03:07:24;99896.16;;;12.51;79.42
72414;BME280;60995;52.154;4.498;2023-03-23T03:09:52;99910.47;;;12.53;79.40
72414;BME280;60995;52.154;4.498;2023-03-23T03:12:46;99914.00;;;12.70;79.27
72414;BME280;60995;52.154;4.498;2023-03-23T03:15:27;99912.50;;;12.51;80.76
72414;BME280;60995;52.154;4.498;2023-03-23T03:20:31;99937.66;;;12.45;82.19
72414;BME280;60995;52.154;4.498;2023-03-23T03:22:52;99936.66;;;12.29;82.58
72414;BME280;60995;52.154;4.498;2023-03-23T03:25:12;99928.00;;;12.34;82.83
72414;BME280;60995;52.154;4.498;2023-03-23T03:27:31;99928.16;;;12.32;82.00
72414;BME280;60995;52.154;4.498;2023-03-23T03:29:53;99934.66;;;12.23;80.48
72414;BME280;60995;52.154;4.498;2023-03-23T03:32:17;99931.22;;;12.29;80.14
72414;BME280;60995;52.154;4.498;2023-03-23T03:34:39;99911.16;;;12.38;79.36
72414;BME280;60995;52.154;4.498;2023-03-23T03:36:56;99918.47;;;12.30;79.82
72414;BME280;60995;52.154;4.498;2023-03-23T03:39:15;99907.75;;;12.36;79.59
72414;BME280;60995;52.154;4.498;2023-03-23T03:41:34;99931.22;;;12.37;79.32
72414;BME280;60995;52.154;4.498;2023-03-23T03:43:52;99938.53;;;12.37;79.60
72414;BME280;60995;52.154;4.498;2023-03-23T03:46:08;99939.03;;;12.40;79.57
72414;BME280;60995;52.154;4.498;2023-03-23T03:48:25;99933.09;;;12.45;79.78
72414;BME280;60995;52.154;4.498;2023-03-23T03:50:41;99935.97;;;12.52;79.81
72414;BME280;60995;52.154;4.498;2023-03-23T03:52:58;99947.53;;;12.46;80.25
72414;BME280;60995;52.154;4.498;2023-03-23T03:55:14;99933.94;;;12.29;81.46
72414;BME280;60995;52.154;4.498;2023-03-23T03:57:33;99933.28;;;12.27;82.18
72414;BME280;60995;52.154;4.498;2023-03-23T03:59:50;99941.09;;;12.05;83.04
72414;BME280;60995;52.154;4.498;2023-03-23T04:02:07;99946.34;;;12.23;82.64
72414;BME280;60995;52.154;4.498;2023-03-23T04:04:24;99949.59;;;12.27;83.21
72414;BME280;60995;52.154;4.498;2023-03-23T04:06:40;99951.97;;;12.05;83.97
72414;BME280;60995;52.154;4.498;2023-03-23T04:08:58;99963.69;;;12.06;83.99
72414;BME280;60995;52.154;4.498;2023-03-23T04:11:15;99923.41;;;12.01;83.89
72414;BME280;60995;52.154;4.498;2023-03-23T04:13:31;99955.88;;;12.03;83.73
72414;BME280;60995;52.154;4.498;2023-03-23T04:15:48;99950.78;;;12.08;83.55
72414;BME280;60995;52.154;4.498;2023-03-23T04:18:04;99957.56;;;12.12;83.14
72414;BME280;60995;52.154;4.498;2023-03-23T04:20:21;99958.09;;;12.07;82.91
72414;BME280;60995;52.154;4.498;2023-03-23T04:22:37;99963.16;;;12.19;82.54
72414;BME280;60995;52.154;4.498;2023-03-23T04:24:53;99957.41;;;12.22;82.73
72414;BME280;60995;52.154;4.498;2023-03-23T04:27:09;99960.97;;;12.14;82.50
72414;BME280;60995;52.154;4.498;2023-03-23T04:29:28;99963.00;;;12.12;81.79
72414;BME280;60995;52.154;4.498;2023-03-23T04:31:46;99968.97;;;12.16;81.91
72414;BME280;60995;52.154;4.498;2023-03-23T04:34:02;99960.78;;;12.24;81.35
72414;BME280;60995;52.154;4.498;2023-03-23T04:36:20;99955.53;;;12.14;80.70
72414;BME280;60995;52.154;4.498;2023-03-23T04:38:38;99973.06;;;12.28;80.38
72414;BME280;60995;52.154;4.498;2023-03-23T04:40:57;99966.94;;;12.18;80.36
72414;BME280;60995;52.154;4.498;2023-03-23T04:43:14;99965.59;;;12.14;80.05
72414;BME280;60995;52.154;4.498;2023-03-23T04:45:31;99966.59;;;12.21;79.85
72414;BME280;60995;52.154;4.498;2023-03-23T04:47:50;99984.25;;;12.25;79.20
72414;BME280;60995;52.154;4.498;2023-03-23T04:50:13;99985.47;;;12.31;79.08
72414;BME280;60995;52.154;4.498;2023-03-23T04:52:29;99993.78;;;12.29;78.92
72414;BME280;60995;52.154;4.498;2023-03-23T04:54:45;99976.59;;;12.37;78.74
72414;BME280;60995;52.154;4.498;2023-03-23T04:57:02;99984.44;;;12.23;78.48
72414;BME280;60995;52.154;4.498;2023-03-23T04:59:19;99977.78;;;12.34;78.56
72414;BME280;60995;52.154;4.498;2023-03-23T05:01:35;99987.84;;;12.34;77.97
72414;BME280;60995;52.154;4.498;2023-03-23T05:03:53;99986.13;;;12.33;78.30
72414;BME280;60995;52.154;4.498;2023-03-23T05:06:10;99991.06;;;12.37;78.13
72414;BME280;60995;52.154;4.498;2023-03-23T05:08:26;99988.88;;;12.16;77.90
72414;BME280;60995;52.154;4.498;2023-03-23T05:10:53;99980.53;;;12.18;78.01
72414;BME280;60995;52.154;4.498;2023-03-23T05:13:11;100000.94;;;12.22;77.65
72414;BME280;60995;52.154;4.498;2023-03-23T05:15:27;100003.13;;;12.27;77.88
72414;BME280;60995;52.154;4.498;2023-03-23T05:17:43;100000.25;;;12.36;77.25
72414;BME280;60995;52.154;4.498;2023-03-23T05:20:01;99993.44;;;12.16;77.85
72414;BME280;60995;52.154;4.498;2023-03-23T05:22:28;100000.94;;;12.14;77.77
72414;BME280;60995;52.154;4.498;2023-03-23T05:24:49;100000.94;;;12.14;77.98
72414;BME280;60995;52.154;4.498;2023-03-23T05:27:09;100009.75;;;12.07;78.13
72414;BME280;60995;52.154;4.498;2023-03-23T05:29:26;100003.28;;;12.00;78.42
72414;BME280;60995;52.154;4.498;2023-03-23T05:31:46;100005.31;;;12.15;78.29
72414;BME280;60995;52.154;4.498;2023-03-23T05:34:03;100012.66;;;12.14;78.49
72414;BME280;60995;52.154;4.498;2023-03-23T05:36:20;100017.88;;;11.99;78.83
72414;BME280;60995;52.154;4.498;2023-03-23T05:38:39;100021.63;;;12.15;78.73
72414;BME280;60995;52.154;4.498;2023-03-23T05:41:01;100014.84;;;12.11;78.76
72414;BME280;60995;52.154;4.498;2023-03-23T05:43:17;100014.00;;;12.10;78.46
72414;BME280;60995;52.154;4.498;2023-03-23T05:45:34;100014.84;;;12.11;78.23
72414;BME280;60995;52.154;4.498;2023-03-23T05:47:50;100031.16;;;12.19;78.25
72414;BME280;60995;52.154;4.498;2023-03-23T05:50:08;100035.09;;;12.16;78.10
72414;BME280;60995;52.154;4.498;2023-03-23T05:52:25;100040.00;;;12.29;77.67
72414;BME280;60995;52.154;4.498;2023-03-23T05:54:41;100024.00;;;12.10;78.03
72414;BME280;60995;52.154;4.498;2023-03-23T05:56:58;100039.41;;;11.92;78.22
72414;BME280;60995;52.154;4.498;2023-03-23T05:59:14;100026.91;;;12.08;77.87
72414;BME280;60995;52.154;4.498;2023-03-23T06:01:31;100038.44;;;12.02;78.27
72414;BME280;60995;52.154;4.498;2023-03-23T06:03:48;100037.66;;;12.18;77.66
72414;BME280;60995;52.154;4.498;2023-03-23T06:06:10;100039.50;;;12.17;77.81
72414;BME280;60995;52.154;4.498;2023-03-23T06:08:27;100035.94;;;12.17;77.43
72414;BME280;60995;52.154;4.498;2023-03-23T06:10:43;100032.03;;;12.19;77.27
72414;BME280;60995;52.154;4.498;2023-03-23T06:12:59;100032.50;;;11.98;77.31
72414;BME280;60995;52.154;4.498;2023-03-23T06:15:18;100050.00;;;12.04;77.68
72414;BME280;60995;52.154;4.498;2023-03-23T06:17:35;100059.22;;;12.19;76.84
72414;BME280;60995;52.154;4.498;2023-03-23T06:19:52;100070.09;;;12.11;76.76
72414;BME280;60995;52.154;4.498;2023-03-23T06:22:08;100061.44;;;12.16;76.87
72414;BME280;60995;52.154;4.498;2023-03-23T06:24:24;100069.88;;;12.04;76.97
72414;BME280;60995;52.154;4.498;2023-03-23T06:26:41;100082.19;;;12.25;76.29
72414;BME280;60995;52.154;4.498;2023-03-23T06:28:58;100079.09;;;12.12;76.36
72414;BME280;60995;52.154;4.498;2023-03-23T06:31:15;100066.50;;;12.19;76.10
72414;BME280;60995;52.154;4.498;2023-03-23T06:33:34;100077.75;;;12.16;75.73
72414;BME280;60995;52.154;4.498;2023-03-23T06:35:51;100083.19;;;12.16;75.80
72414;BME280;60995;52.154;4.498;2023-03-23T06:38:07;100079.44;;;12.25;75.21
72414;BME280;60995;52.154;4.498;2023-03-23T06:40:24;100082.00;;;12.18;75.77
72414;BME280;60995;52.154;4.498;2023-03-23T06:42:40;100091.34;;;12.24;74.98
72414;BME280;60995;52.154;4.498;2023-03-23T06:44:57;100092.03;;;12.34;75.06
72414;BME280;60995;52.154;4.498;2023-03-23T06:47:14;100086.59;;;12.34;74.79
72414;BME280;60995;52.154;4.498;2023-03-23T06:49:30;100091.25;;;12.50;74.25
72414;BME280;60995;52.154;4.498;2023-03-23T06:51:47;100088.13;;;12.37;74.18
72414;BME280;60995;52.154;4.498;2023-03-23T06:54:04;100092.41;;;12.31;74.47
72414;BME280;60995;52.154;4.498;2023-03-23T06:56:20;100098.31;;;12.18;74.19
72414;BME280;60995;52.154;4.498;2023-03-23T06:58:37;100092.03;;;12.34;74.14
72414;BME280;60995;52.154;4.498;2023-03-23T07:00:57;100086.59;;;12.34;73.92
72414;BME280;60995;52.154;4.498;2023-03-23T07:03:14;100089.97;;;12.20;73.81
72414;BME280;60995;52.154;4.498;2023-03-23T07:05:32;100096.16;;;12.38;73.25
72414;BME280;60995;52.154;4.498;2023-03-23T07:07:48;100091.34;;;12.24;73.40
72414;BME280;60995;52.154;4.498;2023-03-23T07:10:08;100096.47;;;12.27;73.09
72414;BME280;60995;52.154;4.498;2023-03-23T07:12:25;100101.25;;;12.50;72.88
72414;BME280;60995;52.154;4.498;2023-03-23T07:14:43;100096.81;;;12.49;72.28
72414;BME280;60995;52.154;4.498;2023-03-23T07:16:59;100101.78;;;12.53;72.32
72414;BME280;60995;52.154;4.498;2023-03-23T07:19:16;100094.09;;;12.49;72.22
72414;BME280;60995;52.154;4.498;2023-03-23T07:21:32;100104.09;;;12.32;72.81
72414;BME280;60995;52.154;4.498;2023-03-23T07:23:49;100099.38;;;12.26;72.75
72414;BME280;60995;52.154;4.498;2023-03-23T07:26:06;100102.09;;;12.34;72.67
72414;BME280;60995;52.154;4.498;2023-03-23T07:28:22;100105.16;;;12.39;71.87
72414;BME280;60995;52.154;4.498;2023-03-23T07:30:39;100103.59;;;14.23;66.50
72414;BME280;60995;52.154;4.498;2023-03-23T07:32:56;100104.56;;;16.13;60.32
72414;BME280;60995;52.154;4.498;2023-03-23T07:35:13;100101.56;;;16.08;58.24
72414;BME280;60995;52.154;4.498;2023-03-23T07:37:29;100102.31;;;14.88;60.94
72414;BME280;60995;52.154;4.498;2023-03-23T07:39:48;100091.81;;;13.99;65.09
72414;BME280;60995;52.154;4.498;2023-03-23T07:42:04;100103.09;;;14.28;64.37
72414;BME280;60995;52.154;4.498;2023-03-23T07:44:23;100100.50;;;17.39;57.14
72414;BME280;60995;52.154;4.498;2023-03-23T07:46:39;100097.81;;;17.17;54.75
72414;BME280;60995;52.154;4.498;2023-03-23T07:48:56;100106.44;;;17.77;53.19
72414;BME280;60995;52.154;4.498;2023-03-23T07:51:12;100111.75;;;18.41;51.54
72414;BME280;60995;52.154;4.498;2023-03-23T07:53:29;100102.88;;;18.25;50.88
72414;BME280;60995;52.154;4.498;2023-03-23T07:55:45;100113.69;;;18.47;51.14
72414;BME280;60995;52.154;4.498;2023-03-23T07:58:01;100105.13;;;19.10;49.06
72414;BME280;60995;52.154;4.498;2023-03-23T08:00:18;100115.91;;;18.10;51.75
72414;BME280;60995;52.154;4.498;2023-03-23T08:02:36;100119.75;;;16.52;55.13
72414;BME280;60995;52.154;4.498;2023-03-23T08:04:52;100121.19;;;15.66;57.83
72414;BME280;60995;52.154;4.498;2023-03-23T08:07:09;100137.50;;;15.60;59.05
72414;BME280;60995;52.154;4.498;2023-03-23T08:09:28;100144.91;;;16.41;56.66
72414;BME280;60995;52.154;4.498;2023-03-23T08:11:44;100132.03;;;16.99;54.88
72414;BME280;60995;52.154;4.498;2023-03-23T08:14:01;100141.25;;;17.77;53.49
72414;BME280;60995;52.154;4.498;2023-03-23T08:16:18;100133.03;;;18.18;51.25
72414;BME280;60995;52.154;4.498;2023-03-23T08:18:36;100143.59;;;19.57;48.84
72414;BME280;60995;52.154;4.498;2023-03-23T08:20:54;100133.44;;;20.37;46.18
72414;BME280;60995;52.154;4.498;2023-03-23T08:23:11;100135.69;;;20.08;46.47
72414;BME280;60995;52.154;4.498;2023-03-23T08:25:29;100130.31;;;21.73;43.22
72414;BME280;60995;52.154;4.498;2023-03-23T08:27:50;100127.50;;;21.04;43.96
72414;BME280;60995;52.154;4.498;2023-03-23T08:30:07;100132.06;;;21.67;43.58
72414;BME280;60995;52.154;4.498;2023-03-23T08:32:24;100141.88;;;20.87;43.84
72414;BME280;60995;52.154;4.498;2023-03-23T08:34:40;100133.00;;;20.78;45.15
72414;BME280;60995;52.154;4.498;2023-03-23T08:36:58;100126.91;;;21.02;44.88
72414;BME280;60995;52.154;4.498;2023-03-23T08:39:14;100136.75;;;20.52;46.15
72414;BME280;60995;52.154;4.498;2023-03-23T08:41:31;100140.69;;;20.24;46.52
72414;BME280;60995;52.154;4.498;2023-03-23T08:43:47;100150.38;;;20.33;46.81
72414;BME280;60995;52.154;4.498;2023-03-23T08:46:04;100148.69;;;20.39;45.96
72414;BME280;60995;52.154;4.498;2023-03-23T08:48:24;100161.84;;;18.43;49.91
72414;BME280;60995;52.154;4.498;2023-03-23T08:50:41;100152.50;;;17.03;53.32
72414;BME280;60995;52.154;4.498;2023-03-23T08:52:57;100158.91;;;16.67;54.44
72414;BME280;60995;52.154;4.498;2023-03-23T08:55:14;100156.44;;;17.16;54.11
72414;BME280;60995;52.154;4.498;2023-03-23T08:57:31;100145.47;;;17.16;52.72
72414;BME280;60995;52.154;4.498;2023-03-23T08:59:47;100147.69;;;17.62;52.27
72414;BME280;60995;52.154;4.498;2023-03-23T09:02:04;100150.72;;;17.39;52.57
72414;BME280;60995;52.154;4.498;2023-03-23T09:04:20;100156.75;;;16.84;53.88
72414;BME280;60995;52.154;4.498;2023-03-23T09:06:37;100164.53;;;16.29;54.99
72414;BME280;60995;52.154;4.498;2023-03-23T09:08:54;100148.03;;;16.59;53.41
72414;BME280;60995;52.154;4.498;2023-03-23T09:11:11;100150.50;;;16.54;53.42
72414;BME280;60995;52.154;4.498;2023-03-23T09:13:28;100151.63;;;16.96;53.38
72414;BME280;60995;52.154;4.498;2023-03-23T09:15:44;100160.41;;;18.60;48.86
72414;BME280;60995;52.154;4.498;2023-03-23T09:18:01;100166.06;;;18.39;49.70
72414;BME280;60995;52.154;4.498;2023-03-23T09:20:20;100175.16;;;18.46;47.78
72414;BME280;60995;52.154;4.498;2023-03-23T09:22:40;100148.81;;;18.03;48.93
72414;BME280;60995;52.154;4.498;2023-03-23T09:24:58;100157.59;;;19.02;47.18
72414;BME280;60995;52.154;4.498;2023-03-23T09:27:14;100154.81;;;19.62;46.01
72414;BME280;60995;52.154;4.498;2023-03-23T09:29:32;100168.97;;;19.86;44.91
72414;BME280;60995;52.154;4.498;2023-03-23T09:31:48;100149.94;;;19.78;45.26
72414;BME280;60995;52.154;4.498;2023-03-23T09:34:04;100166.41;;;20.50;44.71
72414;BME280;60995;52.154;4.498;2023-03-23T09:36:22;100152.97;;;21.31;42.92
72414;BME280;60995;52.154;4.498;2023-03-23T09:38:38;100165.28;;;20.71;43.31
72414;BME280;60995;52.154;4.498;2023-03-23T09:41:10;100167.50;;;20.42;44.71
72414;BME280;60995;52.154;4.498;2023-03-23T09:49:12;100178.63;;;20.22;45.06
72414;BME280;60995;52.154;4.498;2023-03-23T09:51:54;100179.25;;;21.34;42.85
72414;BME280;60995;52.154;4.498;2023-03-23T09:54:37;100192.78;;;20.85;43.32
72414;BME280;60995;52.154;4.498;2023-03-23T09:56:58;100184.59;;;20.12;44.47
72414;BME280;60995;52.154;4.498;2023-03-23T09:59:19;100196.94;;;19.16;46.88
72414;BME280;60995;52.154;4.498;2023-03-23T10:01:47;100196.13;;;19.49;46.83
72414;BME280;60995;52.154;4.498;2023-03-23T10:04:12;100200.34;;;19.58;46.12
72414;BME280;60995;52.154;4.498;2023-03-23T10:06:40;100198.41;;;19.92;46.24
72414;BME280;60995;52.154;4.498;2023-03-23T10:08:58;100204.72;;;20.13;45.50
72414;BME280;60995;52.154;4.498;2023-03-23T10:12:14;100197.19;;;18.52;48.58
72414;BME280;60995;52.154;4.498;2023-03-23T10:15:00;100207.94;;;17.77;50.07
72414;BME280;60995;52.154;4.498;2023-03-23T10:17:28;100199.50;;;17.50;50.49
72414;BME280;60995;52.154;4.498;2023-03-23T10:22:21;100219.88;;;16.76;53.33
72414;BME280;60995;52.154;4.498;2023-03-23T10:24:57;100219.00;;;16.39;53.88
72414;BME280;60995;52.154;4.498;2023-03-23T10:30:11;100222.81;;;16.08;55.56
72414;BME280;60995;52.154;4.498;2023-03-23T10:32:41;100215.84;;;15.91;56.25
72414;BME280;60995;52.154;4.498;2023-03-23T10:35:09;100214.78;;;15.38;57.70
72414;BME280;60995;52.154;4.498;2023-03-23T10:37:40;100205.56;;;14.93;58.33
72414;BME280;60995;52.154;4.498;2023-03-23T10:40:01;100211.44;;;15.05;58.15
72414;BME280;60995;52.154;4.498;2023-03-23T10:44:48;100217.06;;;16.69;53.49
72414;BME280;60995;52.154;4.498;2023-03-23T10:47:06;100221.09;;;16.74;53.31
72414;BME280;60995;52.154;4.498;2023-03-23T10:52:28;100206.66;;;17.45;50.34
72414;BME280;60995;52.154;4.498;2023-03-23T10:55:14;100217.91;;;17.28;50.52
72414;BME280;60995;52.154;4.498;2023-03-23T10:57:37;100223.78;;;17.25;50.70
72414;BME280;60995;52.154;4.498;2023-03-23T11:02:30;100222.75;;;16.53;52.62
72414;BME280;60995;52.154;4.498;2023-03-23T11:04:55;100214.69;;;16.00;52.80
72414;BME280;60995;52.154;4.498;2023-03-23T11:07:20;100229.28;;;15.39;54.57
72414;BME280;60995;52.154;4.498;2023-03-23T11:09:55;100216.22;;;15.26;55.74
72414;BME280;60995;52.154;4.498;2023-03-23T11:12:18;100235.94;;;16.13;54.47
72414;BME280;60995;52.154;4.498;2023-03-23T11:14:36;100219.78;;;15.88;54.76
72414;BME280;60995;52.154;4.498;2023-03-23T11:16:57;100214.19;;;16.41;52.66
72414;BME280;60995;52.154;4.498;2023-03-23T11:19:28;100225.44;;;17.19;50.79
72414;BME280;60995;52.154;4.498;2023-03-23T11:22:08;100230.25;;;17.67;49.49
72414;BME280;60995;52.154;4.498;2023-03-23T11:24:35;100213.03;;;18.09;49.10
72414;BME280;60995;52.154;4.498;2023-03-23T11:26:57;100220.63;;;18.07;48.14
72414;BME280;60995;52.154;4.498;2023-03-23T11:29:22;100206.22;;;18.40;47.61
72414;BME280;60995;52.154;4.498;2023-03-23T11:31:51;100202.22;;;18.00;48.05
72414;BME280;60995;52.154;4.498;2023-03-23T11:34:26;100196.94;;;17.71;48.43
72414;BME280;60995;52.154;4.498;2023-03-23T11:37:01;100205.59;;;18.02;48.15
72414;BME280;60995;52.154;4.498;2023-03-23T11:39:23;100198.78;;;17.63;49.10
72414;BME280;60995;52.154;4.498;2023-03-23T11:41:43;100205.25;;;17.06;49.36
72414;BME280;60995;52.154;4.498;2023-03-23T11:44:08;100211.28;;;16.79;51.51
72414;BME280;60995;52.154;4.498;2023-03-23T11:46:42;100209.13;;;16.23;51.44
72414;BME280;60995;52.154;4.498;2023-03-23T11:49:32;100214.81;;;16.58;51.14
72414;BME280;60995;52.154;4.498;2023-03-23T11:52:18;100223.19;;;16.20;52.40
72414;BME280;60995;52.154;4.498;2023-03-23T11:54:56;100224.97;;;16.43;52.83
72414;BME280;60995;52.154;4.498;2023-03-23T11:57:18;100226.09;;;15.88;53.28
72414;BME280;60995;52.154;4.498;2023-03-23T11:59:35;100230.16;;;16.37;52.19
72414;BME280;60995;52.154;4.498;2023-03-23T12:02:19;100237.81;;;17.15;50.63
72414;BME280;60995;52.154;4.498;2023-03-23T12:13:31;100228.09;;;17.34;49.68
72414;BME280;60995;52.154;4.498;2023-03-23T12:18:55;100216.66;;;17.31;49.96
72414;BME280;60995;52.154;4.498;2023-03-23T12:26:48;100217.06;;;16.69;50.68
72414;BME280;60995;52.154;4.498;2023-03-23T12:32:27;100220.31;;;17.38;49.82
72414;BME280;60995;52.154;4.498;2023-03-23T12:48:45;100201.13;;;17.38;51.82
72414;BME280;60995;52.154;4.498;2023-03-23T12:51:29;100214.56;;;17.11;52.10
72414;BME280;60995;52.154;4.498;2023-03-23T12:54:03;100216.06;;;17.14;53.12
72414;BME280;60995;52.154;4.498;2023-03-23T12:56:33;100205.09;;;17.14;52.83
72414;BME280;60995;52.154;4.498;2023-03-23T12:59:19;100210.31;;;17.09;53.20
72414;BME280;60995;52.154;4.498;2023-03-23T13:04:49;100230.00;;;18.19;49.56
72414;BME280;60995;52.154;4.498;2023-03-23T13:07:16;100235.59;;;18.46;48.07
72414;BME280;60995;52.154;4.498;2023-03-23T13:10:03;100232.69;;;17.56;49.13
72414;BME280;60995;52.154;4.498;2023-03-23T13:12:26;100246.72;;;17.02;49.54
72414;BME280;60995;52.154;4.498;2023-03-23T13:15:00;100248.63;;;16.65;50.91
72414;BME280;60995;52.154;4.498;2023-03-23T13:23:23;100246.66;;;16.96;48.61
72414;BME280;60995;52.154;4.498;2023-03-23T13:28:18;100231.63;;;17.07;49.04
72414;BME280;60995;52.154;4.498;2023-03-23T13:30:38;100229.31;;;16.74;49.78
72414;BME280;60995;52.154;4.498;2023-03-23T13:33:05;100216.75;;;16.43;51.80
72414;BME280;60995;52.154;4.498;2023-03-23T13:35:34;100235.53;;;16.46;52.20
72414;BME280;60995;52.154;4.498;2023-03-23T13:37:53;100241.78;;;16.91;51.45
72414;BME280;60995;52.154;4.498;2023-03-23T13:42:29;100230.38;;;17.09;51.41
72414;BME280;60995;52.154;4.498;2023-03-23T13:52:22;100231.28;;;17.16;52.32